sensor_id;sensor_type;location;lat;lon;timestamp;pressure;altitude;pressure_sealevel;temperature;humidity
55755;BME280;41674;52.290;-1.474;2022-11-14T00:00:33;100678.98;;;12.09;80.26
55755;BME280;41674;52.290;-1.474;2022-11-14T00:03:04;100678.63;;;12.97;80.44
55755;BME280;41674;52.290;-1.474;2022-11-14T00:05:31;100678.17;;;12.63;81.75
55755;BME280;41674;52.290;-1.474;2022-11-14T00:08:00;100674.62;;;12.64;82.26
55755;BME280;41674;52.290;-1.474;2022-11-14T00:10:29;100673.21;;;12.54;82.58
55755;BME280;41674;52.290;-1.474;2022-11-14T00:12:58;100668.58;;;12.37;83.27
55755;BME280;41674;52.290;-1.474;2022-11-14T00:15:27;100667.29;;;12.64;82.60
55755;BME280;41674;52.290;-1.474;2022-11-14T00:17:56;100667.60;;;10.22;89.71
55755;BME280;41674;52.290;-1.474;2022-11-14T00:20:26;100668.68;;;7.71;100.00
55755;BME280;41674;52.290;-1.474;2022-11-14T00:22:55;100667.37;;;9.92;95.95
55755;BME280;41674;52.290;-1.474;2022-11-14T00:25:25;100661.17;;;11.18;87.85
55755;BME280;41674;52.290;-1.474;2022-11-14T00:27:56;100658.88;;;11.74;84.99
55755;BME280;41674;52.290;-1.474;2022-11-14T00:30:27;100659.11;;;11.34;87.15
55755;BME280;41674;52.290;-1.474;2022-11-14T00:32:53;100657.20;;;11.67;84.82
55755;BME280;41674;52.290;-1.474;2022-11-14T00:35:23;100652.03;;;11.74;85.10
55755;BME280;41674;52.290;-1.474;2022-11-14T00:37:53;100649.93;;;11.62;86.01
55755;BME280;41674;52.290;-1.474;2022-11-14T00:40:22;100648.99;;;11.96;84.76
55755;BME280;41674;52.290;-1.474;2022-11-14T00:42:52;100646.96;;;12.09;84.51
55755;BME280;41674;52.290;-1.474;2022-11-14T00:45:22;100644.71;;;12.02;84.17
55755;BME280;41674;52.290;-1.474;2022-11-14T00:47:51;100647.53;;;9.16;96.70
55755;BME280;41674;52.290;-1.474;2022-11-14T00:50:20;100646.18;;;7.80;100.00
55755;BME280;41674;52.290;-1.474;2022-11-14T00:52:49;100637.92;;;10.80;90.19
55755;BME280;41674;52.290;-1.474;2022-11-14T00:55:19;100641.10;;;10.89;88.38
55755;BME280;41674;52.290;-1.474;2022-11-14T00:57:49;100636.76;;;11.61;86.82
55755;BME280;41674;52.290;-1.474;2022-11-14T01:00:18;100640.71;;;11.14;88.55
55755;BME280;41674;52.290;-1.474;2022-11-14T01:02:48;100638.51;;;11.12;87.83
55755;BME280;41674;52.290;-1.474;2022-11-14T01:05:21;100638.51;;;8.43;100.00
55755;BME280;41674;52.290;-1.474;2022-11-14T01:07:47;100633.36;;;9.26;97.12
55755;BME280;41674;52.290;-1.474;2022-11-14T01:10:17;100623.74;;;11.22;88.49
55755;BME280;41674;52.290;-1.474;2022-11-14T01:12:46;100620.51;;;11.93;86.53
55755;BME280;41674;52.290;-1.474;2022-11-14T01:15:16;100616.82;;;11.92;85.40
55755;BME280;41674;52.290;-1.474;2022-11-14T01:17:45;100603.97;;;11.85;84.59
55755;BME280;41674;52.290;-1.474;2022-11-14T01:20:14;100593.58;;;12.26;84.41
55755;BME280;41674;52.290;-1.474;2022-11-14T01:22:44;100591.48;;;12.17;84.37
55755;BME280;41674;52.290;-1.474;2022-11-14T01:25:13;100588.06;;;12.50;84.35
55755;BME280;41674;52.290;-1.474;2022-11-14T01:27:42;100586.81;;;12.15;84.03
55755;BME280;41674;52.290;-1.474;2022-11-14T01:30:13;100588.82;;;12.33;83.25
55755;BME280;41674;52.290;-1.474;2022-11-14T01:32:41;100583.75;;;12.17;82.99
55755;BME280;41674;52.290;-1.474;2022-11-14T01:35:11;100586.38;;;12.69;83.23
55755;BME280;41674;52.290;-1.474;2022-11-14T01:37:40;100589.86;;;11.60;85.55
55755;BME280;41674;52.290;-1.474;2022-11-14T01:40:11;100587.31;;;12.38;84.29
55755;BME280;41674;52.290;-1.474;2022-11-14T01:42:39;100584.99;;;10.91;87.13
55755;BME280;41674;52.290;-1.474;2022-11-14T01:47:39;100588.06;;;11.31;89.93
55755;BME280;41674;52.290;-1.474;2022-11-14T01:50:09;100585.30;;;11.90;85.77
55755;BME280;41674;52.290;-1.474;2022-11-14T01:52:38;100590.63;;;12.03;84.48
55755;BME280;41674;52.290;-1.474;2022-11-14T01:55:09;100591.92;;;11.33;86.45
55755;BME280;41674;52.290;-1.474;2022-11-14T01:57:38;100585.64;;;10.58;90.63
55755;BME280;41674;52.290;-1.474;2022-11-14T02:00:09;100584.85;;;11.32;89.58
55755;BME280;41674;52.290;-1.474;2022-11-14T02:02:35;100579.40;;;10.87;88.83
55755;BME280;41674;52.290;-1.474;2022-11-14T02:05:06;100572.81;;;11.91;84.93
55755;BME280;41674;52.290;-1.474;2022-11-14T02:07:37;100571.15;;;12.28;84.03
55755;BME280;41674;52.290;-1.474;2022-11-14T02:10:06;100563.07;;;12.30;83.24
55755;BME280;41674;52.290;-1.474;2022-11-14T02:12:33;100561.74;;;12.40;82.86
55755;BME280;41674;52.290;-1.474;2022-11-14T02:15:03;100561.74;;;10.49;90.75
55755;BME280;41674;52.290;-1.474;2022-11-14T02:17:31;100559.09;;;11.06;89.92
55755;BME280;41674;52.290;-1.474;2022-11-14T02:22:33;100552.92;;;12.54;82.53
55755;BME280;41674;52.290;-1.474;2022-11-14T02:24:59;100541.89;;;12.33;82.57
55755;BME280;41674;52.290;-1.474;2022-11-14T02:27:29;100532.66;;;12.30;82.82
55755;BME280;41674;52.290;-1.474;2022-11-14T02:30:03;100537.82;;;10.72;88.77
55755;BME280;41674;52.290;-1.474;2022-11-14T02:32:27;100531.25;;;11.49;86.27
55755;BME280;41674;52.290;-1.474;2022-11-14T02:34:56;100528.60;;;11.79;84.74
55755;BME280;41674;52.290;-1.474;2022-11-14T02:37:25;100528.73;;;12.27;83.68
55755;BME280;41674;52.290;-1.474;2022-11-14T02:39:55;100532.67;;;12.34;83.83
55755;BME280;41674;52.290;-1.474;2022-11-14T02:42:26;100534.43;;;11.91;85.27
55755;BME280;41674;52.290;-1.474;2022-11-14T02:44:54;100533.71;;;11.22;85.26
55755;BME280;41674;52.290;-1.474;2022-11-14T02:47:24;100534.74;;;12.33;83.88
55755;BME280;41674;52.290;-1.474;2022-11-14T02:49:53;100531.53;;;12.01;83.49
55755;BME280;41674;52.290;-1.474;2022-11-14T02:52:23;100527.51;;;12.15;83.17
55755;BME280;41674;52.290;-1.474;2022-11-14T02:54:52;100521.07;;;12.12;83.19
55755;BME280;41674;52.290;-1.474;2022-11-14T02:57:21;100511.54;;;11.63;85.52
55755;BME280;41674;52.290;-1.474;2022-11-14T02:59:50;100513.11;;;10.96;88.00
55755;BME280;41674;52.290;-1.474;2022-11-14T03:02:21;100503.00;;;11.97;85.09
55755;BME280;41674;52.290;-1.474;2022-11-14T03:04:49;100501.21;;;12.21;85.01
55755;BME280;41674;52.290;-1.474;2022-11-14T03:07:20;100510.73;;;10.33;89.10
55755;BME280;41674;52.290;-1.474;2022-11-14T03:09:48;100509.61;;;11.57;86.73
55755;BME280;41674;52.290;-1.474;2022-11-14T03:12:18;100506.20;;;11.07;87.28
55755;BME280;41674;52.290;-1.474;2022-11-14T03:14:47;100508.33;;;11.37;88.26
55755;BME280;41674;52.290;-1.474;2022-11-14T03:17:16;100509.58;;;11.20;88.59
55755;BME280;41674;52.290;-1.474;2022-11-14T03:19:45;100507.84;;;9.94;91.84
55755;BME280;41674;52.290;-1.474;2022-11-14T03:22:15;100501.61;;;10.18;96.08
55755;BME280;41674;52.290;-1.474;2022-11-14T03:24:44;100498.61;;;9.84;95.99
55755;BME280;41674;52.290;-1.474;2022-11-14T03:27:13;100488.23;;;9.43;96.65
55755;BME280;41674;52.290;-1.474;2022-11-14T03:29:43;100484.25;;;10.71;91.55
55755;BME280;41674;52.290;-1.474;2022-11-14T03:32:22;100481.26;;;11.81;86.40
55755;BME280;41674;52.290;-1.474;2022-11-14T03:34:41;100478.43;;;12.11;84.66
55755;BME280;41674;52.290;-1.474;2022-11-14T03:37:11;100485.23;;;12.06;84.80
55755;BME280;41674;52.290;-1.474;2022-11-14T03:39:39;100481.23;;;12.02;84.19
55755;BME280;41674;52.290;-1.474;2022-11-14T03:42:09;100476.41;;;12.69;83.94
55755;BME280;41674;52.290;-1.474;2022-11-14T03:44:39;100473.37;;;12.57;83.60
55755;BME280;41674;52.290;-1.474;2022-11-14T03:47:08;100474.77;;;12.45;83.18
55755;BME280;41674;52.290;-1.474;2022-11-14T03:49:37;100474.88;;;12.56;82.96
55755;BME280;41674;52.290;-1.474;2022-11-14T03:52:07;100478.34;;;10.84;89.75
55755;BME280;41674;52.290;-1.474;2022-11-14T03:54:36;100479.29;;;11.35;87.88
55755;BME280;41674;52.290;-1.474;2022-11-14T03:57:05;100477.59;;;11.44;89.13
55755;BME280;41674;52.290;-1.474;2022-11-14T03:59:34;100479.54;;;11.60;87.70
55755;BME280;41674;52.290;-1.474;2022-11-14T04:02:04;100490.62;;;8.18;100.00
55755;BME280;41674;52.290;-1.474;2022-11-14T04:04:34;100492.51;;;9.90;98.29
55755;BME280;41674;52.290;-1.474;2022-11-14T04:07:02;100494.24;;;7.72;100.00
55755;BME280;41674;52.290;-1.474;2022-11-14T04:09:32;100498.04;;;8.04;100.00
55755;BME280;41674;52.290;-1.474;2022-11-14T04:12:02;100494.98;;;7.53;100.00
55755;BME280;41674;52.290;-1.474;2022-11-14T04:14:31;100491.16;;;6.80;100.00
55755;BME280;41674;52.290;-1.474;2022-11-14T04:17:01;100489.10;;;8.71;100.00
55755;BME280;41674;52.290;-1.474;2022-11-14T04:19:30;100482.18;;;9.18;100.00
55755;BME280;41674;52.290;-1.474;2022-11-14T04:22:00;100483.15;;;10.62;97.44
55755;BME280;41674;52.290;-1.474;2022-11-14T04:24:30;100475.86;;;10.26;97.97
55755;BME280;41674;52.290;-1.474;2022-11-14T04:27:00;100474.66;;;10.53;95.89
55755;BME280;41674;52.290;-1.474;2022-11-14T04:29:28;100477.96;;;11.29;92.19
55755;BME280;41674;52.290;-1.474;2022-11-14T04:31:58;100471.39;;;12.02;89.78
55755;BME280;41674;52.290;-1.474;2022-11-14T04:34:27;100475.72;;;10.47;94.39
55755;BME280;41674;52.290;-1.474;2022-11-14T04:36:57;100468.37;;;11.86;88.32
55755;BME280;41674;52.290;-1.474;2022-11-14T04:39:29;100472.11;;;11.61;88.13
55755;BME280;41674;52.290;-1.474;2022-11-14T04:41:55;100463.54;;;11.91;88.80
55755;BME280;41674;52.290;-1.474;2022-11-14T04:44:25;100455.10;;;12.19;87.76
55755;BME280;41674;52.290;-1.474;2022-11-14T04:46:55;100461.92;;;11.62;87.67
55755;BME280;41674;52.290;-1.474;2022-11-14T04:49:24;100463.24;;;12.11;86.91
55755;BME280;41674;52.290;-1.474;2022-11-14T04:51:54;100454.44;;;12.17;85.83
55755;BME280;41674;52.290;-1.474;2022-11-14T04:54:23;100459.55;;;12.27;85.49
55755;BME280;41674;52.290;-1.474;2022-11-14T04:56:53;100459.73;;;12.48;84.67
55755;BME280;41674;52.290;-1.474;2022-11-14T04:59:22;100456.35;;;12.35;85.05
55755;BME280;41674;52.290;-1.474;2022-11-14T05:01:52;100460.86;;;12.61;83.91
55755;BME280;41674;52.290;-1.474;2022-11-14T05:04:21;100448.76;;;12.71;82.92
55755;BME280;41674;52.290;-1.474;2022-11-14T05:06:50;100444.52;;;13.04;82.52
55755;BME280;41674;52.290;-1.474;2022-11-14T05:09:19;100443.72;;;13.11;82.48
55755;BME280;41674;52.290;-1.474;2022-11-14T05:11:49;100433.18;;;12.24;84.83
55755;BME280;41674;52.290;-1.474;2022-11-14T05:14:19;100438.69;;;12.33;85.25
55755;BME280;41674;52.290;-1.474;2022-11-14T05:16:47;100443.33;;;12.51;83.90
55755;BME280;41674;52.290;-1.474;2022-11-14T05:19:17;100436.05;;;12.17;85.98
55755;BME280;41674;52.290;-1.474;2022-11-14T05:21:46;100429.10;;;12.43;84.88
55755;BME280;41674;52.290;-1.474;2022-11-14T05:24:16;100420.82;;;12.84;83.44
55755;BME280;41674;52.290;-1.474;2022-11-14T05:26:45;100425.66;;;12.79;83.73
55755;BME280;41674;52.290;-1.474;2022-11-14T05:29:15;100420.56;;;12.09;84.71
55755;BME280;41674;52.290;-1.474;2022-11-14T05:31:44;100418.37;;;12.88;83.06
55755;BME280;41674;52.290;-1.474;2022-11-14T05:34:14;100407.73;;;13.27;81.59
55755;BME280;41674;52.290;-1.474;2022-11-14T05:36:43;100400.41;;;13.02;81.64
55755;BME280;41674;52.290;-1.474;2022-11-14T05:39:12;100412.24;;;13.09;81.29
55755;BME280;41674;52.290;-1.474;2022-11-14T05:41:42;100406.55;;;12.87;81.73
55755;BME280;41674;52.290;-1.474;2022-11-14T05:44:11;100398.94;;;12.46;84.21
55755;BME280;41674;52.290;-1.474;2022-11-14T05:46:41;100388.54;;;13.26;81.34
55755;BME280;41674;52.290;-1.474;2022-11-14T05:49:10;100397.09;;;12.65;82.47
55755;BME280;41674;52.290;-1.474;2022-11-14T05:51:41;100419.92;;;12.45;83.90
55755;BME280;41674;52.290;-1.474;2022-11-14T05:54:10;100420.44;;;12.94;82.49
55755;BME280;41674;52.290;-1.474;2022-11-14T05:56:40;100415.63;;;12.84;82.73
55755;BME280;41674;52.290;-1.474;2022-11-14T05:59:09;100402.14;;;12.94;82.64
55755;BME280;41674;52.290;-1.474;2022-11-14T06:01:39;100392.80;;;12.06;84.83
55755;BME280;41674;52.290;-1.474;2022-11-14T06:04:09;100400.31;;;11.91;87.47
55755;BME280;41674;52.290;-1.474;2022-11-14T06:06:38;100405.85;;;12.33;85.19
55755;BME280;41674;52.290;-1.474;2022-11-14T06:09:07;100400.39;;;12.01;85.08
55755;BME280;41674;52.290;-1.474;2022-11-14T06:11:37;100405.37;;;12.66;83.82
55755;BME280;41674;52.290;-1.474;2022-11-14T06:14:06;100397.11;;;12.65;83.63
55755;BME280;41674;52.290;-1.474;2022-11-14T06:16:36;100384.94;;;13.03;82.28
55755;BME280;41674;52.290;-1.474;2022-11-14T06:19:05;100386.74;;;12.68;83.36
55755;BME280;41674;52.290;-1.474;2022-11-14T06:21:35;100383.87;;;12.54;84.76
55755;BME280;41674;52.290;-1.474;2022-11-14T06:24:05;100387.19;;;11.55;88.14
55755;BME280;41674;52.290;-1.474;2022-11-14T06:26:34;100390.30;;;11.30;91.22
55755;BME280;41674;52.290;-1.474;2022-11-14T06:29:03;100404.58;;;9.10;100.00
55755;BME280;41674;52.290;-1.474;2022-11-14T06:31:33;100402.34;;;10.70;96.82
55755;BME280;41674;52.290;-1.474;2022-11-14T06:34:04;100385.40;;;11.18;91.90
55755;BME280;41674;52.290;-1.474;2022-11-14T06:36:32;100386.33;;;9.89;96.66
55755;BME280;41674;52.290;-1.474;2022-11-14T06:39:02;100397.82;;;11.44;92.48
55755;BME280;41674;52.290;-1.474;2022-11-14T06:44:00;100406.93;;;12.14;87.32
55755;BME280;41674;52.290;-1.474;2022-11-14T06:46:30;100402.44;;;12.40;86.18
55755;BME280;41674;52.290;-1.474;2022-11-14T06:49:00;100402.77;;;12.64;85.46
55755;BME280;41674;52.290;-1.474;2022-11-14T06:51:29;100392.17;;;12.86;84.68
55755;BME280;41674;52.290;-1.474;2022-11-14T06:53:59;100390.56;;;12.75;84.22
55755;BME280;41674;52.290;-1.474;2022-11-14T06:56:28;100390.39;;;12.98;84.28
55755;BME280;41674;52.290;-1.474;2022-11-14T06:58:57;100382.57;;;12.83;84.98
55755;BME280;41674;52.290;-1.474;2022-11-14T07:01:26;100388.79;;;12.21;87.33
55755;BME280;41674;52.290;-1.474;2022-11-14T07:03:56;100394.79;;;12.43;86.56
55755;BME280;41674;52.290;-1.474;2022-11-14T07:06:27;100396.73;;;13.01;84.47
55755;BME280;41674;52.290;-1.474;2022-11-14T07:08:56;100394.22;;;12.22;87.54
55755;BME280;41674;52.290;-1.474;2022-11-14T07:11:26;100391.74;;;12.77;84.35
55755;BME280;41674;52.290;-1.474;2022-11-14T07:13:55;100397.72;;;12.70;85.05
55755;BME280;41674;52.290;-1.474;2022-11-14T07:16:25;100382.48;;;13.18;83.54
55755;BME280;41674;52.290;-1.474;2022-11-14T07:18:52;100377.37;;;12.33;86.49
55755;BME280;41674;52.290;-1.474;2022-11-14T07:21:23;100380.62;;;11.58;92.06
55755;BME280;41674;52.290;-1.474;2022-11-14T07:23:51;100394.48;;;11.59;91.66
55755;BME280;41674;52.290;-1.474;2022-11-14T07:26:21;100395.85;;;12.18;88.23
55755;BME280;41674;52.290;-1.474;2022-11-14T07:28:50;100372.47;;;12.18;86.97
55755;BME280;41674;52.290;-1.474;2022-11-14T07:31:29;100364.12;;;12.34;86.62
55755;BME280;41674;52.290;-1.474;2022-11-14T07:33:49;100362.77;;;12.58;85.83
55755;BME280;41674;52.290;-1.474;2022-11-14T07:36:19;100365.28;;;12.07;87.60
55755;BME280;41674;52.290;-1.474;2022-11-14T07:38:48;100365.18;;;11.68;89.10
55755;BME280;41674;52.290;-1.474;2022-11-14T07:41:17;100372.04;;;12.15;86.87
55755;BME280;41674;52.290;-1.474;2022-11-14T07:43:48;100376.21;;;12.06;87.28
55755;BME280;41674;52.290;-1.474;2022-11-14T07:46:17;100371.07;;;12.60;85.59
55755;BME280;41674;52.290;-1.474;2022-11-14T07:48:45;100379.82;;;12.49;85.20
55755;BME280;41674;52.290;-1.474;2022-11-14T07:51:16;100380.13;;;12.43;86.12
55755;BME280;41674;52.290;-1.474;2022-11-14T07:53:43;100380.44;;;12.93;84.89
55755;BME280;41674;52.290;-1.474;2022-11-14T07:56:13;100374.74;;;13.20;84.26
55755;BME280;41674;52.290;-1.474;2022-11-14T07:58:42;100371.17;;;12.87;84.61
55755;BME280;41674;52.290;-1.474;2022-11-14T08:01:13;100362.90;;;12.08;88.39
55755;BME280;41674;52.290;-1.474;2022-11-14T08:03:41;100363.16;;;12.29;88.41
55755;BME280;41674;52.290;-1.474;2022-11-14T08:08:41;100375.42;;;12.51;88.12
55755;BME280;41674;52.290;-1.474;2022-11-14T08:11:11;100374.50;;;12.30;88.88
55755;BME280;41674;52.290;-1.474;2022-11-14T08:13:40;100386.44;;;12.29;88.85
55755;BME280;41674;52.290;-1.474;2022-11-14T08:16:09;100376.55;;;12.36;88.17
55755;BME280;41674;52.290;-1.474;2022-11-14T08:18:38;100378.00;;;11.93;90.28
55755;BME280;41674;52.290;-1.474;2022-11-14T08:21:07;100377.76;;;12.35;89.17
55755;BME280;41674;52.290;-1.474;2022-11-14T08:23:37;100362.75;;;11.95;90.33
55755;BME280;41674;52.290;-1.474;2022-11-14T08:26:06;100351.90;;;12.59;88.27
55755;BME280;41674;52.290;-1.474;2022-11-14T08:28:36;100362.96;;;12.48;88.68
55755;BME280;41674;52.290;-1.474;2022-11-14T08:31:05;100361.34;;;12.67;87.98
55755;BME280;41674;52.290;-1.474;2022-11-14T08:33:35;100361.54;;;11.46;91.23
55755;BME280;41674;52.290;-1.474;2022-11-14T08:36:06;100358.37;;;12.24;89.51
55755;BME280;41674;52.290;-1.474;2022-11-14T08:38:34;100355.52;;;11.87;90.31
55755;BME280;41674;52.290;-1.474;2022-11-14T08:41:03;100354.56;;;12.29;89.87
55755;BME280;41674;52.290;-1.474;2022-11-14T08:43:32;100357.30;;;12.22;90.13
55755;BME280;41674;52.290;-1.474;2022-11-14T08:46:03;100355.02;;;12.70;88.44
55755;BME280;41674;52.290;-1.474;2022-11-14T08:48:32;100348.51;;;12.77;87.98
55755;BME280;41674;52.290;-1.474;2022-11-14T08:51:03;100338.77;;;12.98;86.97
55755;BME280;41674;52.290;-1.474;2022-11-14T08:53:30;100338.71;;;12.93;86.99
55755;BME280;41674;52.290;-1.474;2022-11-14T08:56:00;100335.22;;;12.63;88.46
55755;BME280;41674;52.290;-1.474;2022-11-14T08:58:29;100328.47;;;10.44;100.00
55755;BME280;41674;52.290;-1.474;2022-11-14T09:01:08;100324.89;;;11.70;94.29
55755;BME280;41674;52.290;-1.474;2022-11-14T09:03:27;100320.82;;;12.21;92.30
55755;BME280;41674;52.290;-1.474;2022-11-14T09:05:57;100322.37;;;12.72;90.09
55755;BME280;41674;52.290;-1.474;2022-11-14T09:08:27;100327.28;;;10.76;97.52
55755;BME280;41674;52.290;-1.474;2022-11-14T09:10:59;100327.31;;;11.69;96.03
55755;BME280;41674;52.290;-1.474;2022-11-14T09:13:25;100325.45;;;12.06;93.58
55755;BME280;41674;52.290;-1.474;2022-11-14T09:15:54;100322.78;;;12.62;91.74
55755;BME280;41674;52.290;-1.474;2022-11-14T09:18:23;100320.65;;;12.70;91.29
55755;BME280;41674;52.290;-1.474;2022-11-14T09:20:57;100310.68;;;12.10;92.21
55755;BME280;41674;52.290;-1.474;2022-11-14T09:23:22;100305.52;;;12.03;93.51
55755;BME280;41674;52.290;-1.474;2022-11-14T09:25:52;100293.96;;;13.11;90.25
55755;BME280;41674;52.290;-1.474;2022-11-14T09:28:21;100284.28;;;13.31;88.86
55755;BME280;41674;52.290;-1.474;2022-11-14T09:33:29;100285.75;;;12.80;92.14
55755;BME280;41674;52.290;-1.474;2022-11-14T09:35:56;100287.34;;;12.49;92.52
55755;BME280;41674;52.290;-1.474;2022-11-14T09:38:19;100283.38;;;12.90;90.78
55755;BME280;41674;52.290;-1.474;2022-11-14T09:41:01;100274.75;;;13.19;90.25
55755;BME280;41674;52.290;-1.474;2022-11-14T09:43:32;100270.53;;;13.10;89.45
55755;BME280;41674;52.290;-1.474;2022-11-14T09:45:49;100276.25;;;12.95;91.66
55755;BME280;41674;52.290;-1.474;2022-11-14T09:48:18;100274.20;;;12.78;92.69
55755;BME280;41674;52.290;-1.474;2022-11-14T09:50:50;100283.16;;;12.99;90.99
55755;BME280;41674;52.290;-1.474;2022-11-14T09:53:20;100290.00;;;12.77;91.81
55755;BME280;41674;52.290;-1.474;2022-11-14T09:55:45;100284.28;;;13.26;89.87
55755;BME280;41674;52.290;-1.474;2022-11-14T09:58:17;100280.89;;;13.05;88.59
55755;BME280;41674;52.290;-1.474;2022-11-14T10:00:49;100277.76;;;14.09;85.78
55755;BME280;41674;52.290;-1.474;2022-11-14T10:03:16;100265.43;;;14.03;85.66
55755;BME280;41674;52.290;-1.474;2022-11-14T10:05:55;100264.46;;;14.28;85.22
55755;BME280;41674;52.290;-1.474;2022-11-14T10:08:25;100267.76;;;14.24;85.27
55755;BME280;41674;52.290;-1.474;2022-11-14T10:10:49;100269.71;;;14.62;84.37
55755;BME280;41674;52.290;-1.474;2022-11-14T10:13:21;100266.49;;;14.62;83.85
55755;BME280;41674;52.290;-1.474;2022-11-14T10:15:45;100270.80;;;14.64;84.96
55755;BME280;41674;52.290;-1.474;2022-11-14T10:18:24;100272.59;;;13.75;88.03
55755;BME280;41674;52.290;-1.474;2022-11-14T10:20:43;100271.43;;;14.21;85.16
55755;BME280;41674;52.290;-1.474;2022-11-14T10:23:20;100270.12;;;14.33;83.92
55755;BME280;41674;52.290;-1.474;2022-11-14T10:25:46;100262.66;;;14.34;84.93
55755;BME280;41674;52.290;-1.474;2022-11-14T10:28:21;100268.99;;;15.07;82.60
55755;BME280;41674;52.290;-1.474;2022-11-14T10:30:39;100268.88;;;14.26;84.94
55755;BME280;41674;52.290;-1.474;2022-11-14T10:33:16;100254.12;;;14.27;85.16
55755;BME280;41674;52.290;-1.474;2022-11-14T10:35:41;100248.18;;;13.93;85.96
55755;BME280;41674;52.290;-1.474;2022-11-14T10:38:17;100254.91;;;13.87;87.30
55755;BME280;41674;52.290;-1.474;2022-11-14T10:40:39;100252.54;;;13.96;85.90
55755;BME280;41674;52.290;-1.474;2022-11-14T10:43:17;100264.50;;;13.44;89.48
55755;BME280;41674;52.290;-1.474;2022-11-14T10:45:39;100267.06;;;12.85;93.22
55755;BME280;41674;52.290;-1.474;2022-11-14T10:48:09;100264.27;;;13.54;89.70
55755;BME280;41674;52.290;-1.474;2022-11-14T10:50:40;100256.73;;;13.64;89.42
55755;BME280;41674;52.290;-1.474;2022-11-14T10:53:13;100258.35;;;13.29;89.47
55755;BME280;41674;52.290;-1.474;2022-11-14T10:55:36;100261.03;;;13.54;90.14
55755;BME280;41674;52.290;-1.474;2022-11-14T10:58:08;100266.90;;;11.88;97.89
55755;BME280;41674;52.290;-1.474;2022-11-14T11:00:31;100262.93;;;12.40;95.27
55755;BME280;41674;52.290;-1.474;2022-11-14T11:03:00;100267.94;;;11.60;99.19
55755;BME280;41674;52.290;-1.474;2022-11-14T11:05:30;100256.28;;;12.60;95.95
55755;BME280;41674;52.290;-1.474;2022-11-14T11:08:00;100255.40;;;12.65;96.12
55755;BME280;41674;52.290;-1.474;2022-11-14T11:10:30;100252.48;;;12.82;96.84
55755;BME280;41674;52.290;-1.474;2022-11-14T11:12:58;100252.68;;;12.80;95.74
55755;BME280;41674;52.290;-1.474;2022-11-14T11:15:29;100259.73;;;12.32;98.29
55755;BME280;41674;52.290;-1.474;2022-11-14T11:17:58;100263.89;;;12.04;98.46
55755;BME280;41674;52.290;-1.474;2022-11-14T11:20:29;100262.99;;;11.98;98.93
55755;BME280;41674;52.290;-1.474;2022-11-14T11:23:03;100262.83;;;12.18;98.47
55755;BME280;41674;52.290;-1.474;2022-11-14T11:25:27;100259.64;;;12.09;98.85
55755;BME280;41674;52.290;-1.474;2022-11-14T11:28:06;100258.26;;;11.58;100.00
55755;BME280;41674;52.290;-1.474;2022-11-14T11:30:24;100255.08;;;11.74;99.46
55755;BME280;41674;52.290;-1.474;2022-11-14T11:32:53;100243.23;;;12.33;98.45
55755;BME280;41674;52.290;-1.474;2022-11-14T11:35:23;100242.65;;;12.40;98.19
55755;BME280;41674;52.290;-1.474;2022-11-14T11:37:57;100241.80;;;12.98;95.64
55755;BME280;41674;52.290;-1.474;2022-11-14T11:40:24;100237.00;;;12.58;97.21
55755;BME280;41674;52.290;-1.474;2022-11-14T11:42:57;100235.79;;;12.80;96.10
55755;BME280;41674;52.290;-1.474;2022-11-14T11:45:21;100228.60;;;12.97;95.24
55755;BME280;41674;52.290;-1.474;2022-11-14T11:47:55;100223.87;;;13.12;93.14
55755;BME280;41674;52.290;-1.474;2022-11-14T11:50:20;100221.11;;;12.95;95.79
55755;BME280;41674;52.290;-1.474;2022-11-14T11:52:57;100215.73;;;12.34;96.03
55755;BME280;41674;52.290;-1.474;2022-11-14T11:55:22;100210.05;;;13.47;92.54
55755;BME280;41674;52.290;-1.474;2022-11-14T11:57:53;100203.71;;;13.93;90.74
55755;BME280;41674;52.290;-1.474;2022-11-14T12:00:19;100199.13;;;14.00;90.54
55755;BME280;41674;52.290;-1.474;2022-11-14T12:02:47;100198.18;;;14.26;88.76
55755;BME280;41674;52.290;-1.474;2022-11-14T12:05:17;100205.51;;;13.55;91.81
55755;BME280;41674;52.290;-1.474;2022-11-14T12:07:49;100205.63;;;13.36;91.85
55755;BME280;41674;52.290;-1.474;2022-11-14T12:10:19;100199.46;;;13.85;90.79
55755;BME280;41674;52.290;-1.474;2022-11-14T12:13:00;100195.44;;;14.45;88.47
55755;BME280;41674;52.290;-1.474;2022-11-14T12:15:19;100193.91;;;13.87;89.13
55755;BME280;41674;52.290;-1.474;2022-11-14T12:17:58;100189.67;;;13.62;90.11
55755;BME280;41674;52.290;-1.474;2022-11-14T12:20:32;100191.82;;;13.65;90.77
55755;BME280;41674;52.290;-1.474;2022-11-14T12:27:52;100177.37;;;13.45;91.00
55755;BME280;41674;52.290;-1.474;2022-11-14T12:30:18;100173.02;;;13.08;92.32
55755;BME280;41674;52.290;-1.474;2022-11-14T12:32:44;100161.85;;;13.87;89.60
55755;BME280;41674;52.290;-1.474;2022-11-14T12:35:18;100160.52;;;13.45;91.33
55755;BME280;41674;52.290;-1.474;2022-11-14T12:37:44;100160.58;;;13.56;91.27
55755;BME280;41674;52.290;-1.474;2022-11-14T12:40:25;100153.60;;;14.42;87.54
55755;BME280;41674;52.290;-1.474;2022-11-14T12:42:45;100154.66;;;14.34;87.70
55755;BME280;41674;52.290;-1.474;2022-11-14T12:50:26;100152.54;;;15.00;84.93
55755;BME280;41674;52.290;-1.474;2022-11-14T12:52:46;100151.26;;;14.64;87.17
55755;BME280;41674;52.290;-1.474;2022-11-14T12:57:40;100141.71;;;13.63;89.93
55755;BME280;41674;52.290;-1.474;2022-11-14T13:00:07;100140.48;;;13.55;89.00
55755;BME280;41674;52.290;-1.474;2022-11-14T13:02:52;100139.53;;;14.22;86.63
55755;BME280;41674;52.290;-1.474;2022-11-14T13:05:16;100138.27;;;14.24;86.85
55755;BME280;41674;52.290;-1.474;2022-11-14T13:07:41;100132.50;;;13.97;87.40
55755;BME280;41674;52.290;-1.474;2022-11-14T13:10:13;100126.85;;;14.06;87.58
55755;BME280;41674;52.290;-1.474;2022-11-14T13:12:33;100121.57;;;14.12;87.83
55755;BME280;41674;52.290;-1.474;2022-11-14T13:17:30;100114.13;;;14.74;85.50